Time;durP1;ratioP1;P1;durP2;ratioP2;P2;SDS_P1;SDS_P2;PMS_P1;PMS_P2;Temp;Humidity;BMP_temperature;BMP_pressure;BME280_temperature;BME280_humidity;BME280_pressure;Samples;Min_cycle;Max_cycle;Signal;HPM_P1;HPM_P2
2022/10/15 00:01:15;;;;;;;33.27;24.47;;;;;;;10.61;89.59;100235.25;1704435;83;21073;-75
2022/10/15 00:03:44;;;;;;;34.73;23.67;;;;;;;10.60;89.58;100224.38;1704354;83;21773;-75
2022/10/15 00:06:16;;;;;;;31.37;23.05;;;;;;;10.61;89.72;100217.37;1704187;83;21031;-75
2022/10/15 00:08:44;;;;;;;32.55;23.20;;;;;;;10.62;89.78;100209.92;1704280;84;21070;-74
2022/10/15 00:11:16;;;;;;;29.67;22.77;;;;;;;10.65;89.91;100213.73;1704346;84;21074;-74
2022/10/15 00:13:43;;;;;;;33.28;23.38;;;;;;;10.66;90.00;100208.41;1704322;83;21038;-75
2022/10/15 00:16:15;;;;;;;39.03;24.12;;;;;;;10.69;89.97;100212.20;1704587;84;21268;-81
2022/10/15 00:18:42;;;;;;;33.07;24.80;;;;;;;10.70;89.93;100211.31;1704348;83;21465;-75
2022/10/15 00:21:13;;;;;;;32.17;22.33;;;;;;;10.72;89.92;100213.86;1704307;83;21003;-75
2022/10/15 00:23:41;;;;;;;30.45;22.77;;;;;;;10.75;89.97;100211.57;1704398;83;21007;-75
2022/10/15 00:26:16;;;;;;;29.47;23.37;;;;;;;10.77;90.00;100209.28;1704558;83;21008;-74
2022/10/15 00:28:44;;;;;;;33.28;23.35;;;;;;;10.79;89.95;100213.17;1704296;83;21943;-75
2022/10/15 00:31:14;;;;;;;32.73;22.63;;;;;;;10.82;89.97;100206.48;1704556;83;21018;-74
2022/10/15 00:33:43;;;;;;;27.35;20.90;;;;;;;10.83;89.99;100196.37;1704462;84;21014;-74
2022/10/15 00:36:14;;;;;;;31.52;22.02;;;;;;;10.86;90.00;100194.50;1704352;83;21018;-74
2022/10/15 00:38:42;;;;;;;26.50;20.90;;;;;;;10.87;89.93;100188.80;1704578;84;21022;-77
2022/10/15 00:41:20;;;;;;;28.20;21.77;;;;;;;10.88;89.93;100182.63;1704272;84;21123;-78
2022/10/15 00:43:58;;;;;;;30.80;21.60;;;;;;;10.90;89.94;100185.58;1669920;84;21039;-74
2022/10/15 00:46:35;;;;;;;28.93;21.27;;;;;;;10.92;89.95;100177.66;1662952;84;21050;-75
2022/10/15 00:49:29;;;;;;;28.75;20.57;;;;;;;10.92;89.87;100179.83;1679894;84;21050;-76
2022/10/15 00:52:08;;;;;;;30.17;21.50;;;;;;;10.93;89.89;100178.89;1662461;85;21056;-75
2022/10/15 00:54:41;;;;;;;32.40;22.27;;;;;;;10.96;89.93;100171.83;1662998;85;21572;-75
2022/10/15 00:57:10;;;;;;;30.37;21.93;;;;;;;10.97;89.89;100167.81;1645596;84;21034;-74
2022/10/15 00:59:42;;;;;;;27.13;20.80;;;;;;;10.97;89.86;100163.88;1679893;84;21026;-75
2022/10/15 01:02:11;;;;;;;29.27;21.48;;;;;;;10.98;89.83;100153.80;1668894;85;21025;-75
2022/10/15 01:04:40;;;;;;;29.18;20.85;;;;;;;10.97;89.77;100152.08;1692207;84;22107;-74
2022/10/15 01:07:07;;;;;;;28.25;21.57;;;;;;;10.96;89.73;100150.84;1692154;84;21960;-80
2022/10/15 01:09:37;;;;;;;32.73;22.30;;;;;;;10.96;89.82;100151.69;1662910;85;21038;-75
2022/10/15 01:12:07;;;;;;;30.48;22.13;;;;;;;10.97;89.81;100152.53;1679745;84;21046;-75
2022/10/15 01:14:52;;;;;;;30.37;22.23;;;;;;;10.96;89.80;100160.02;1668805;85;21595;-76
2022/10/15 01:17:41;;;;;;;29.95;21.48;;;;;;;10.96;89.79;100149.53;1692355;84;21035;-74
2022/10/15 01:20:47;;;;;;;31.93;22.77;;;;;;;10.94;89.78;100151.74;1692271;84;22234;-74
2022/10/15 01:23:38;;;;;;;33.10;23.63;;;;;;;10.95;89.82;100140.82;1662731;84;21078;-75
2022/10/15 01:26:22;;;;;;;36.37;23.97;;;;;;;10.94;90.00;100136.01;1661193;84;21045;-75
2022/10/15 01:29:16;;;;;;;36.68;24.10;;;;;;;10.96;90.03;100134.64;1668869;85;21026;-74
2022/10/15 01:32:13;;;;;;;35.17;24.65;;;;;;;10.98;90.03;100135.91;1667528;85;21046;-75
2022/10/15 01:35:21;;;;;;;37.00;25.10;;;;;;;10.99;90.02;100129.73;1625275;87;21207;-74
2022/10/15 01:38:46;;;;;;;38.25;25.57;;;;;;;10.96;89.99;100118.06;1677622;84;21106;-78
2022/10/15 01:41:27;;;;;;;30.65;23.92;;;;;;;10.97;90.11;100103.56;1679878;84;21024;-75
2022/10/15 01:44:05;;;;;;;34.23;24.77;;;;;;;10.98;90.23;100097.88;1679730;84;21046;-77
2022/10/15 01:46:56;;;;;;;33.05;23.50;;;;;;;10.98;90.22;100103.12;1676563;84;21012;-81
2022/10/15 01:49:28;;;;;;;34.92;24.20;;;;;;;10.99;90.13;100104.35;1679755;83;21211;-75
2022/10/15 01:51:57;;;;;;;35.70;25.32;;;;;;;10.97;90.24;100094.37;1674464;85;21019;-75
2022/10/15 01:54:27;;;;;;;36.63;25.23;;;;;;;10.96;90.18;100099.70;1674584;85;21509;-75
2022/10/15 01:56:56;;;;;;;34.27;24.60;;;;;;;10.95;90.21;100102.80;1674663;84;21051;-75
2022/10/15 01:59:27;;;;;;;34.60;24.90;;;;;;;10.96;90.35;100104.95;1674588;84;21512;-75
2022/10/15 02:01:54;;;;;;;37.15;24.57;;;;;;;10.96;90.39;100092.69;1687812;84;21938;-78
2022/10/15 02:04:28;;;;;;;32.48;25.17;;;;;;;10.97;90.32;100083.05;1674340;85;21070;-75
2022/10/15 02:07:12;;;;;;;35.83;26.17;;;;;;;10.97;90.35;100078.65;1674443;85;21042;-75
2022/10/15 02:10:00;;;;;;;40.63;28.02;;;;;;;10.99;90.42;100083.38;1674585;84;21028;-82
2022/10/15 02:12:42;;;;;;;43.00;27.70;;;;;;;11.01;90.49;100076.77;1674050;85;21063;-75
2022/10/15 02:15:21;;;;;;;46.08;28.60;;;;;;;11.01;90.54;100068.43;1674458;84;21221;-76
2022/10/15 02:18:18;;;;;;;37.33;24.80;;;;;;;11.05;90.61;100073.07;1674375;85;21003;-82
2022/10/15 02:20:56;;;;;;;34.67;24.07;;;;;;;11.07;90.66;100068.62;1668243;84;21036;-75
2022/10/15 02:23:35;;;;;;;36.03;24.92;;;;;;;11.08;90.66;100079.02;1674507;85;21302;-75
2022/10/15 02:26:06;;;;;;;34.75;24.40;;;;;;;11.10;90.62;100075.03;1673167;84;21012;-75
2022/10/15 02:28:36;;;;;;;36.08;24.85;;;;;;;11.08;90.55;100073.78;1668237;85;21141;-75
2022/10/15 02:31:04;;;;;;;34.50;25.23;;;;;;;11.10;90.58;100072.41;1674752;84;21011;-75
2022/10/15 02:33:34;;;;;;;35.70;24.90;;;;;;;11.12;90.64;100075.83;1674524;85;21035;-75
2022/10/15 02:36:02;;;;;;;32.45;23.80;;;;;;;11.12;90.67;100064.88;1674765;85;21031;-76
2022/10/15 02:38:34;;;;;;;34.83;25.10;;;;;;;11.13;90.65;100057.37;1674467;84;22096;-75
2022/10/15 02:41:01;;;;;;;;;;;;;;;11.16;90.67;100057.23;1677292;84;22238;-75
2022/10/15 02:43:28;;;;;;;34.48;23.77;;;;;;;11.18;90.79;100038.83;1674325;85;20155;-76
2022/10/15 02:45:55;;;;;;;33.38;23.38;;;;;;;11.21;90.73;100035.21;1674446;84;21030;-75
2022/10/15 02:48:23;;;;;;;33.05;24.55;;;;;;;11.22;90.68;100040.84;1675656;83;20995;-75
2022/10/15 02:50:50;;;;;;;33.85;24.02;;;;;;;11.24;90.69;100041.16;1708400;84;21537;-84
2022/10/15 02:53:17;;;;;;;35.17;24.15;;;;;;;11.27;90.69;100036.23;1721114;83;21943;-75
2022/10/15 02:55:45;;;;;;;33.63;22.65;;;;;;;11.29;90.71;100031.78;1697430;84;21546;-75
2022/10/15 02:58:13;;;;;;;31.77;22.73;;;;;;;11.30;90.71;100021.20;1714587;83;21034;-75
2022/10/15 03:00:42;;;;;;;30.45;22.87;;;;;;;11.33;90.66;100020.20;1708248;83;21012;-82
2022/10/15 03:03:10;;;;;;;30.25;22.35;;;;;;;11.35;90.69;100025.78;1721163;83;21573;-78
2022/10/15 03:05:37;;;;;;;29.85;22.50;;;;;;;11.38;90.69;100027.41;1702198;84;21099;-79
2022/10/15 03:08:04;;;;;;;30.65;21.73;;;;;;;11.42;90.71;100025.48;1721160;83;21450;-75
2022/10/15 03:10:32;;;;;;;27.82;20.85;;;;;;;11.45;90.68;100031.94;1708291;84;21458;-75
2022/10/15 03:13:05;;;;;;;31.50;21.95;;;;;;;11.46;90.66;100026.59;1721160;83;21003;-75
2022/10/15 03:15:36;;;;;;;28.35;21.30;;;;;;;11.49;90.64;100022.98;1721244;83;21553;-75
2022/10/15 03:18:05;;;;;;;33.83;21.85;;;;;;;11.50;90.54;100022.92;1708574;84;21132;-75
2022/10/15 03:20:32;;;;;;;28.92;21.70;;;;;;;11.52;90.48;100017.58;1721398;83;21070;-83
2022/10/15 03:22:59;;;;;;;29.63;21.23;;;;;;;11.53;90.51;100014.90;1708381;84;21023;-75
2022/10/15 03:25:26;;;;;;;33.10;21.73;;;;;;;11.54;90.39;100008.72;1721178;83;20988;-78
2022/10/15 03:27:55;;;;;;;32.28;21.30;;;;;;;11.55;90.37;100006.47;1708124;83;21075;-76
2022/10/15 03:30:24;;;;;;;28.47;20.02;;;;;;;11.55;90.45;100007.78;1720821;83;21126;-75
2022/10/15 03:32:52;;;;;;;29.45;20.23;;;;;;;11.57;90.41;100003.31;1721200;83;20989;-77
2022/10/15 03:35:19;;;;;;;28.42;20.12;;;;;;;11.60;90.35;100010.20;1721130;83;21087;-75
2022/10/15 03:37:46;;;;;;;28.05;21.23;;;;;;;11.61;90.38;100006.64;1708396;84;21429;-82
2022/10/15 03:40:13;;;;;;;28.60;20.02;;;;;;;11.63;90.37;100001.33;1721179;83;21030;-80
2022/10/15 03:42:40;;;;;;;29.25;20.37;;;;;;;11.65;90.31;100000.80;1708659;84;21102;-82
2022/10/15 03:45:10;;;;;;;29.65;20.95;;;;;;;11.65;90.31;100004.73;1721119;83;20999;-75
2022/10/15 03:47:37;;;;;;;29.20;20.55;;;;;;;11.67;90.34;99997.65;1721350;83;21032;-82
2022/10/15 03:50:05;;;;;;;30.50;21.35;;;;;;;11.67;90.28;99998.50;1718446;83;21015;-75
2022/10/15 03:52:32;;;;;;;27.15;19.80;;;;;;;11.69;90.31;99989.22;1697761;83;21032;-75
2022/10/15 03:54:59;;;;;;;29.98;21.40;;;;;;;11.70;90.33;99991.78;1716581;83;21096;-75
2022/10/15 03:57:26;;;;;;;29.75;19.75;;;;;;;11.71;90.27;99988.69;1686435;85;21493;-75
2022/10/15 03:59:55;;;;;;;29.98;20.17;;;;;;;11.73;90.22;99994.72;1716672;83;21516;-75
2022/10/15 04:02:24;;;;;;;27.48;19.57;;;;;;;11.72;90.14;99992.56;1686562;85;21031;-75
2022/10/15 04:04:52;;;;;;;26.02;18.98;;;;;;;11.73;90.14;99989.47;1716518;83;21086;-75
2022/10/15 04:07:20;;;;;;;27.02;19.32;;;;;;;11.73;90.20;99990.31;1686509;85;21102;-75
2022/10/15 04:09:48;;;;;;;24.27;18.17;;;;;;;11.75;90.10;99998.98;1716748;83;21023;-80
2022/10/15 04:12:20;;;;;;;25.20;19.15;;;;;;;11.77;90.07;100000.20;1697247;83;21052;-75
2022/10/15 04:14:48;;;;;;;24.80;18.10;;;;;;;11.77;90.02;100002.83;1716621;83;20984;-75
2022/10/15 04:17:15;;;;;;;24.18;17.90;;;;;;;11.77;89.99;99998.89;1686574;84;21039;-75
2022/10/15 04:19:42;;;;;;;24.12;18.65;;;;;;;11.77;90.00;99994.48;1721986;83;21090;-75
2022/10/15 04:22:10;;;;;;;23.62;18.02;;;;;;;11.78;89.98;99997.98;1697934;83;21032;-75
2022/10/15 04:24:39;;;;;;;27.27;18.67;;;;;;;11.80;89.96;99998.73;1716144;83;20924;-81
2022/10/15 04:27:07;;;;;;;24.63;17.62;;;;;;;11.80;89.98;99994.80;1686416;85;21069;-76
2022/10/15 04:29:34;;;;;;;24.98;18.73;;;;;;;11.81;89.95;100001.30;1716590;83;21020;-75
2022/10/15 04:32:02;;;;;;;23.77;18.10;;;;;;;11.82;89.87;99995.58;1697372;83;21057;-79
2022/10/15 04:34:29;;;;;;;27.20;18.57;;;;;;;11.82;89.84;99996.42;1716375;83;21011;-82
2022/10/15 04:36:56;;;;;;;27.90;18.25;;;;;;;11.82;89.82;99993.80;1686346;84;21038;-79
2022/10/15 04:39:25;;;;;;;24.55;18.02;;;;;;;11.82;89.77;99995.11;1716524;83;21015;-75
2022/10/15 04:41:52;;;;;;;24.47;17.25;;;;;;;11.82;89.74;99988.55;1686407;84;21004;-79
2022/10/15 04:44:24;;;;;;;23.32;17.32;;;;;;;11.81;89.69;99987.33;1716756;83;21106;-75
2022/10/15 04:46:55;;;;;;;23.75;17.65;;;;;;;11.82;89.79;99986.39;1696749;83;21024;-75
2022/10/15 04:49:27;;;;;;;21.85;17.02;;;;;;;11.81;89.77;99984.23;1715849;83;21489;-75
2022/10/15 04:51:55;;;;;;;21.80;17.00;;;;;;;11.82;89.78;99987.70;1686294;85;21094;-75
2022/10/15 04:54:24;;;;;;;23.05;17.65;;;;;;;11.83;89.73;99985.02;1716637;83;20992;-75
2022/10/15 04:57:03;;;;;;;25.12;17.65;;;;;;;11.83;89.73;99977.58;1697552;83;21288;-75
2022/10/15 04:59:31;;;;;;;24.55;17.90;;;;;;;11.85;89.71;99977.05;1716716;83;21026;-75
2022/10/15 05:01:59;;;;;;;26.73;17.98;;;;;;;11.86;89.71;99977.92;1696575;83;21037;-75
2022/10/15 05:04:27;;;;;;;25.30;18.02;;;;;;;11.86;89.63;99981.42;1716778;83;20984;-75
2022/10/15 05:06:54;;;;;;;23.65;17.07;;;;;;;11.87;89.66;99984.42;1691158;84;21557;-76
2022/10/15 05:09:21;;;;;;;24.10;17.70;;;;;;;11.87;89.60;99982.27;1706901;83;21141;-73
2022/10/15 05:11:50;;;;;;;24.30;18.70;;;;;;;11.84;89.55;99984.08;1691098;83;21084;-73
2022/10/15 05:14:17;;;;;;;23.07;18.48;;;;;;;11.85;89.56;99990.17;1690885;83;21100;-73
2022/10/15 05:16:46;;;;;;;25.62;20.32;;;;;;;11.84;89.56;99988.02;1691056;83;21051;-74
2022/10/15 05:19:13;;;;;;;29.18;20.37;;;;;;;11.87;89.59;99992.30;1690914;83;21477;-74
2022/10/15 05:21:40;;;;;;;31.17;19.85;;;;;;;11.84;89.55;99986.70;1691046;83;21882;-74
2022/10/15 05:24:10;;;;;;;30.15;20.02;;;;;;;11.84;89.49;99979.30;1690751;83;21604;-72
2022/10/15 05:26:55;;;;;;;27.87;20.12;;;;;;;11.85;89.62;99987.55;1690831;83;21552;-73
2022/10/15 05:29:22;;;;;;;31.60;22.37;;;;;;;11.85;89.53;99984.92;1690932;83;21091;-76
2022/10/15 05:31:53;;;;;;;30.57;22.30;;;;;;;11.84;89.57;99981.92;1691576;83;21055;-74
2022/10/15 05:34:22;;;;;;;30.45;21.97;;;;;;;11.83;89.72;99977.58;1691422;83;21177;-76
2022/10/15 05:36:51;;;;;;;30.70;22.27;;;;;;;11.83;89.66;99985.45;1689897;83;21589;-79
2022/10/15 05:39:18;;;;;;;31.00;21.65;;;;;;;11.82;89.68;99987.23;1690995;83;21071;-75
2022/10/15 05:41:45;;;;;;;33.53;22.77;;;;;;;11.80;89.64;99982.98;1690825;83;21489;-73
2022/10/15 05:44:13;;;;;;;30.68;23.02;;;;;;;11.78;89.73;99984.39;1691230;83;21059;-72
2022/10/15 05:46:40;;;;;;;32.78;22.55;;;;;;;11.77;89.62;99989.70;1690664;83;21141;-73
2022/10/15 05:49:07;;;;;;;32.45;23.25;;;;;;;11.74;89.70;99992.00;1690470;83;21575;-73
2022/10/15 05:51:37;;;;;;;34.90;23.80;;;;;;;11.74;89.75;99993.78;1665865;84;21519;-73
2022/10/15 05:54:06;;;;;;;30.82;22.50;;;;;;;11.72;89.79;99992.56;1658647;85;21613;-73
2022/10/15 05:56:34;;;;;;;31.45;21.82;;;;;;;11.70;89.78;99989.16;1648892;85;22170;-73
2022/10/15 05:59:02;;;;;;;31.07;22.13;;;;;;;11.70;89.84;99992.25;1648325;85;21143;-73
2022/10/15 06:01:29;;;;;;;32.95;22.65;;;;;;;11.71;90.02;99996.56;1648446;85;21029;-72
2022/10/15 06:03:56;;;;;;;36.10;23.85;;;;;;;11.69;90.03;99999.25;1648702;85;22003;-74
2022/10/15 06:06:26;;;;;;;34.50;22.90;;;;;;;11.69;90.07;100002.34;1662128;85;21053;-77
2022/10/15 06:08:54;;;;;;;35.03;23.87;;;;;;;11.68;90.12;100006.75;1666876;85;21049;-73
2022/10/15 06:11:21;;;;;;;34.88;23.65;;;;;;;11.69;90.16;100002.34;1671054;85;21140;-73
2022/10/15 06:13:48;;;;;;;34.65;23.73;;;;;;;11.69;90.18;100003.66;1671010;85;22065;-73
2022/10/15 06:16:17;;;;;;;36.48;23.92;;;;;;;11.66;90.21;99996.77;1670396;85;21070;-74
2022/10/15 06:18:44;;;;;;;32.03;23.27;;;;;;;11.64;90.28;99996.02;1669946;85;21060;-73
2022/10/15 06:21:12;;;;;;;35.38;24.12;;;;;;;11.63;90.33;99994.77;1670723;85;21045;-72
2022/10/15 06:23:39;;;;;;;33.67;23.62;;;;;;;11.64;90.50;100001.70;1668466;85;21126;-73
2022/10/15 06:26:09;;;;;;;34.05;24.12;;;;;;;11.64;90.58;100004.33;1670908;85;20982;-72
2022/10/15 06:28:37;;;;;;;34.83;23.57;;;;;;;11.66;90.61;100003.80;1670806;85;21054;-73
2022/10/15 06:31:05;;;;;;;32.65;23.75;;;;;;;11.68;90.68;100013.78;1649766;85;21525;-71
2022/10/15 06:33:35;;;;;;;33.25;23.75;;;;;;;11.70;90.58;100015.88;1670728;85;21603;-73
2022/10/15 06:36:07;;;;;;;31.97;23.92;;;;;;;11.68;90.65;100011.16;1665903;85;21524;-74
2022/10/15 06:38:35;;;;;;;35.50;24.10;;;;;;;11.69;90.66;100014.16;1652117;85;21500;-74
2022/10/15 06:41:07;;;;;;;33.02;23.52;;;;;;;11.70;90.78;100015.41;1652178;85;21018;-74
2022/10/15 06:43:35;;;;;;;35.95;24.15;;;;;;;11.74;90.93;100012.17;1652658;85;21014;-85
2022/10/15 06:46:05;;;;;;;31.42;23.22;;;;;;;11.79;90.90;100014.11;1652477;85;21096;-81
2022/10/15 06:48:33;;;;;;;31.77;23.73;;;;;;;11.83;90.91;100019.16;1652235;85;21451;-74
2022/10/15 06:51:03;;;;;;;31.85;23.73;;;;;;;11.87;90.82;100018.56;1674094;84;21073;-74
2022/10/15 06:53:30;;;;;;;32.58;23.05;;;;;;;11.91;90.83;100015.32;1661898;84;21008;-74
2022/10/15 06:56:01;;;;;;;31.62;22.40;;;;;;;11.96;90.90;100020.73;1697274;84;20999;-74
2022/10/15 06:58:30;;;;;;;33.78;22.50;;;;;;;12.00;90.83;100015.73;1686418;84;21043;-74
2022/10/15 07:01:04;;;;;;;34.67;24.45;;;;;;;12.08;90.88;100019.74;1704184;84;21139;-82
2022/10/15 07:03:31;;;;;;;35.00;23.47;;;;;;;12.13;90.81;100019.06;1674423;84;21016;-74
2022/10/15 07:06:03;;;;;;;33.35;22.55;;;;;;;12.15;90.78;100019.38;1704230;84;21524;-74
2022/10/15 07:08:31;;;;;;;28.73;21.33;;;;;;;12.18;90.80;100016.59;1704204;83;20999;-74
2022/10/15 07:11:02;;;;;;;31.90;22.75;;;;;;;12.21;90.62;100019.53;1704484;84;21011;-75
2022/10/15 07:13:31;;;;;;;32.55;23.12;;;;;;;12.24;90.62;100022.84;1674422;84;21072;-74
2022/10/15 07:16:07;;;;;;;31.30;21.70;;;;;;;12.28;90.50;100018.31;1704557;84;20995;-74
2022/10/15 07:18:35;;;;;;;33.78;22.52;;;;;;;12.32;90.41;100021.16;1704100;83;21027;-80
2022/10/15 07:21:06;;;;;;;32.15;21.80;;;;;;;12.35;90.42;100017.05;1704532;84;21023;-74
2022/10/15 07:23:33;;;;;;;30.77;22.07;;;;;;;12.37;90.47;100016.52;1704473;83;21440;-74
2022/10/15 07:26:01;;;;;;;32.03;22.27;;;;;;;12.42;90.49;100011.89;1704470;84;21103;-86
2022/10/15 07:28:28;;;;;;;31.35;22.40;;;;;;;12.47;90.58;100011.20;1704530;84;21054;-85
2022/10/15 07:31:03;;;;;;;30.75;22.02;;;;;;;12.52;90.43;100014.88;1704277;83;21043;-74
2022/10/15 07:33:33;;;;;;;29.70;21.35;;;;;;;12.59;90.45;100014.13;1674696;84;21478;-74
2022/10/15 07:36:05;;;;;;;28.27;22.22;;;;;;;12.65;90.47;100011.17;1704651;83;21037;-85
2022/10/15 07:38:34;;;;;;;28.25;22.00;;;;;;;12.73;90.58;100020.83;1704600;84;21123;-74
2022/10/15 07:41:03;;;;;;;30.92;22.00;;;;;;;12.84;90.57;100028.16;1704280;84;21042;-85
2022/10/15 07:43:33;;;;;;;28.55;21.87;;;;;;;12.92;90.51;100025.98;1704595;83;21019;-74
2022/10/15 07:46:00;;;;;;;26.90;21.30;;;;;;;12.99;90.37;100026.02;1704366;83;21526;-81
2022/10/15 07:48:28;;;;;;;28.95;20.70;;;;;;;13.05;90.23;100024.84;1704646;83;21039;-74
2022/10/15 07:50:58;;;;;;;29.72;21.95;;;;;;;13.12;90.45;100025.76;1709085;83;21204;-74
2022/10/15 07:53:25;;;;;;;27.62;21.60;;;;;;;13.17;90.24;100022.42;1686387;84;21023;-75
2022/10/15 07:56:00;;;;;;;33.98;22.32;;;;;;;13.25;90.18;100026.44;1716573;83;21042;-74
2022/10/15 07:58:30;;;;;;;29.40;21.68;;;;;;;13.27;90.10;100022.79;1686405;84;21102;-77
2022/10/15 08:01:06;;;;;;;33.02;23.07;;;;;;;13.32;90.08;100026.03;1716832;83;21552;-84
2022/10/15 08:03:36;;;;;;;37.70;25.37;;;;;;;13.37;90.00;100025.78;1697625;83;21816;-74
2022/10/15 08:06:06;;;;;;;34.33;22.70;;;;;;;13.45;90.06;100024.06;1716472;83;20970;-85
2022/10/15 08:08:35;;;;;;;35.63;23.45;;;;;;;13.51;90.06;100019.30;1686559;85;21038;-75
2022/10/15 08:11:15;;;;;;;36.75;23.80;;;;;;;13.61;90.03;100018.33;1716812;83;21613;-78
2022/10/15 08:13:45;;;;;;;52.15;31.57;;;;;;;13.69;90.10;100019.20;1697649;83;21522;-74
2022/10/15 08:16:14;;;;;;;34.00;24.80;;;;;;;13.79;89.90;100025.18;1717000;83;21078;-74
2022/10/15 08:18:43;;;;;;;32.60;24.30;;;;;;;13.86;89.77;100028.81;1686537;84;21019;-74
2022/10/15 08:21:12;;;;;;;52.45;36.15;;;;;;;13.95;89.81;100030.91;1716624;83;20927;-80
2022/10/15 08:23:39;;;;;;;46.88;32.08;;;;;;;14.00;89.80;100028.40;1697773;83;21024;-73
2022/10/15 08:26:07;;;;;;;49.77;34.15;;;;;;;14.06;89.73;100034.63;1716876;83;21521;-74
2022/10/15 08:28:35;;;;;;;48.83;31.55;;;;;;;14.09;89.52;100036.72;1697588;83;21823;-74
2022/10/15 08:31:04;;;;;;;35.88;25.20;;;;;;;14.12;89.53;100037.37;1716445;83;20984;-74
2022/10/15 08:33:32;;;;;;;53.02;34.00;;;;;;;14.15;89.29;100035.04;1697584;83;21024;-74
2022/10/15 08:35:59;;;;;;;57.30;38.90;;;;;;;14.18;89.40;100041.45;1716782;83;21038;-74
2022/10/15 08:38:26;;;;;;;50.55;34.73;;;;;;;14.20;89.11;100046.17;1686402;85;21246;-84
2022/10/15 08:40:57;;;;;;;53.15;37.80;;;;;;;14.23;89.34;100042.03;1716881;83;21099;-74
2022/10/15 08:43:38;;;;;;;40.58;29.12;;;;;;;14.28;89.32;100047.42;1716530;83;20987;-74
2022/10/15 08:46:16;;;;;;;31.33;24.95;;;;;;;14.35;89.23;100047.91;1716756;83;21066;-84
2022/10/15 08:48:50;;;;;;;31.10;24.00;;;;;;;14.38;88.87;100049.52;1716538;83;21036;-74
2022/10/15 08:51:27;;;;;;;35.17;27.10;;;;;;;14.42;88.88;100043.14;1700304;83;21043;-74
2022/10/15 08:53:59;;;;;;;30.77;23.50;;;;;;;14.50;88.88;100047.02;1690592;84;21140;-81
2022/10/15 08:56:42;;;;;;;37.33;24.80;;;;;;;14.56;88.80;100048.47;1721041;83;20919;-74
2022/10/15 08:59:34;;;;;;;33.15;24.30;;;;;;;14.60;88.72;100054.41;1721390;83;21549;-75
2022/10/15 09:02:18;;;;;;;36.73;25.35;;;;;;;14.64;88.56;100052.83;1721159;83;21042;-74
2022/10/15 09:05:23;;;;;;;34.88;25.05;;;;;;;14.64;88.37;100048.03;1720467;83;22036;-74
2022/10/15 09:08:02;;;;;;;35.08;25.05;;;;;;;14.64;88.28;100062.53;1708239;83;21143;-74
2022/10/15 09:10:43;;;;;;;31.30;24.02;;;;;;;14.61;88.09;100056.97;1721022;83;21503;-74
2022/10/15 09:13:24;;;;;;;35.55;24.87;;;;;;;14.61;88.20;100058.77;1720869;83;21000;-75
2022/10/15 09:15:56;;;;;;;37.83;24.85;;;;;;;14.65;88.35;100058.47;1721178;83;21046;-75
2022/10/15 09:18:27;;;;;;;33.85;24.40;;;;;;;14.69;88.32;100054.73;1720929;83;21035;-74
2022/10/15 09:20:55;;;;;;;32.13;23.42;;;;;;;14.75;88.31;100053.52;1721031;83;21102;-74
2022/10/15 09:23:29;;;;;;;37.63;25.90;;;;;;;14.80;88.31;100052.77;1721445;83;21080;-84
2022/10/15 09:26:19;;;;;;;34.13;24.98;;;;;;;14.89;88.49;100052.69;1708298;84;21064;-74
2022/10/15 09:29:06;;;;;;;37.15;24.60;;;;;;;15.01;88.50;100056.36;1700136;83;21536;-75
2022/10/15 09:31:41;;;;;;;34.50;25.02;;;;;;;15.08;88.30;100056.38;1681711;83;21042;-79
2022/10/15 09:34:32;;;;;;;33.48;24.20;;;;;;;15.12;88.11;100064.47;1720657;83;21052;-74
2022/10/15 09:37:21;;;;;;;36.93;24.40;;;;;;;15.12;87.96;100057.39;1720875;83;21027;-74
2022/10/15 09:40:04;;;;;;;29.18;21.35;;;;;;;15.16;87.90;100068.64;1720535;83;21003;-75
2022/10/15 09:42:39;;;;;;;32.95;23.32;;;;;;;15.18;87.91;100065.41;1695878;84;21075;-74
2022/10/15 09:45:13;;;;;;;31.95;23.30;;;;;;;15.21;87.83;100070.50;1662731;86;21091;-78
2022/10/15 09:47:43;;;;;;;32.23;23.95;;;;;;;15.27;87.89;100063.98;1662444;86;21203;-75
2022/10/15 09:50:13;;;;;;;29.85;22.15;;;;;;;15.31;87.54;100065.52;1662536;86;21015;-85
2022/10/15 09:53:43;;;;;;;31.97;22.62;;;;;;;15.31;87.41;100067.67;1647480;85;21034;-85
2022/10/15 09:56:21;;;;;;;28.65;21.90;;;;;;;15.31;87.29;100069.47;1645301;87;21018;-74
2022/10/15 09:58:53;;;;;;;31.30;22.60;;;;;;;15.32;87.38;100069.84;1645189;87;21010;-74
2022/10/15 10:01:25;;;;;;;30.52;21.80;;;;;;;15.36;87.34;100076.64;1644434;87;21161;-74
2022/10/15 10:04:13;;;;;;;29.92;22.40;;;;;;;15.38;87.33;100073.44;1644930;87;21075;-75
2022/10/15 10:06:53;;;;;;;31.15;21.20;;;;;;;15.39;87.12;100071.16;1636039;87;21026;-75
2022/10/15 10:09:26;;;;;;;29.00;21.10;;;;;;;15.45;87.15;100072.58;1645109;87;21023;-85
2022/10/15 10:12:08;;;;;;;28.35;21.27;;;;;;;15.43;87.08;100070.02;1645348;87;21050;-74
2022/10/15 10:14:41;;;;;;;26.17;21.62;;;;;;;15.45;86.69;100075.22;1645264;87;21285;-75
2022/10/15 10:17:17;;;;;;;30.08;22.20;;;;;;;15.41;86.56;100077.20;1645268;87;21045;-75
2022/10/15 10:19:47;;;;;;;30.45;22.00;;;;;;;15.36;86.61;100070.04;1672586;84;21018;-74
2022/10/15 10:22:19;;;;;;;30.12;20.85;;;;;;;15.40;86.78;100072.38;1695727;84;21563;-74
2022/10/15 10:24:47;;;;;;;25.05;20.05;;;;;;;15.45;86.87;100066.81;1697544;84;20998;-75
2022/10/15 10:27:25;;;;;;;29.95;20.05;;;;;;;15.50;86.85;100071.82;1697407;84;21133;-87
2022/10/15 10:30:01;;;;;;;23.65;18.75;;;;;;;15.51;86.78;100075.67;1697678;84;20975;-75
2022/10/15 10:32:31;;;;;;;26.35;19.92;;;;;;;15.56;87.17;100063.50;1697765;84;20994;-74
2022/10/15 10:35:00;;;;;;;24.77;18.80;;;;;;;15.63;87.00;100067.47;1697724;84;21492;-75
2022/10/15 10:37:28;;;;;;;22.93;18.80;;;;;;;15.73;86.82;100063.78;1697706;84;21001;-78
2022/10/15 10:39:58;;;;;;;22.67;18.70;;;;;;;15.83;86.84;100068.39;1697442;84;21815;-75
2022/10/15 10:42:32;;;;;;;24.80;18.65;;;;;;;15.93;86.77;100067.30;1697646;84;21264;-74
2022/10/15 10:45:21;;;;;;;25.05;18.92;;;;;;;16.05;86.86;100066.53;1697423;84;21531;-75
2022/10/15 10:47:49;;;;;;;24.40;17.87;;;;;;;16.17;86.54;100060.06;1697472;84;21539;-88
2022/10/15 10:50:30;;;;;;;20.37;16.60;;;;;;;16.24;86.25;100060.05;1697543;84;21041;-75
2022/10/15 10:53:00;;;;;;;29.63;19.02;;;;;;;16.33;86.34;100058.11;1713432;83;21092;-75
2022/10/15 10:55:33;;;;;;;20.43;16.93;;;;;;;16.48;86.08;100062.84;1715283;83;21524;-75
2022/10/15 10:58:03;;;;;;;21.00;16.90;;;;;;;16.58;85.96;100063.92;1716229;83;21038;-80
2022/10/15 11:00:47;;;;;;;18.20;15.95;;;;;;;16.70;85.87;100067.53;1697710;83;21001;-75
2022/10/15 11:03:40;;;;;;;20.40;16.55;;;;;;;16.78;85.46;100063.92;1716557;83;20999;-74
2022/10/15 11:06:42;;;;;;;19.55;15.53;;;;;;;16.85;85.17;100057.27;1686226;85;22048;-75
2022/10/15 11:09:16;;;;;;;17.43;14.93;;;;;;;16.92;85.30;100061.17;1673084;85;21020;-74
2022/10/15 11:12:08;;;;;;;18.27;15.05;;;;;;;16.95;84.69;100054.34;1693523;84;21095;-83
2022/10/15 11:15:00;;;;;;;18.25;14.05;;;;;;;17.02;84.76;100056.11;1716541;83;21485;-87
2022/10/15 11:18:08;;;;;;;20.30;14.07;;;;;;;17.10;84.68;100056.91;1716723;83;21030;-86
2022/10/15 11:21:18;;;;;;;21.00;15.55;;;;;;;17.19;84.49;100058.06;1697806;83;21072;-75
2022/10/15 11:23:58;;;;;;;17.45;14.53;;;;;;;17.19;83.99;100054.09;1700061;84;21039;-89
2022/10/15 11:26:51;;;;;;;18.42;13.20;;;;;;;17.16;83.98;100055.98;1716025;83;21031;-82
2022/10/15 11:29:37;;;;;;;16.65;12.95;;;;;;;17.19;83.98;100058.90;1686446;84;21011;-75
2022/10/15 11:32:34;;;;;;;17.42;13.93;;;;;;;17.16;83.70;100057.31;1664757;86;21075;-74
2022/10/15 11:35:41;;;;;;;16.77;12.93;;;;;;;17.20;83.88;100055.28;1664496;86;21435;-88
2022/10/15 11:38:39;;;;;;;16.02;12.33;;;;;;;17.23;84.03;100053.74;1664491;86;21055;-75
2022/10/15 11:41:12;;;;;;;15.45;12.28;;;;;;;17.26;83.88;100061.47;1663907;86;21027;-74